Time;durP1;ratioP1;P1;durP2;ratioP2;P2;SDS_P1;SDS_P2;PMS_P1;PMS_P2;Temp;Humidity;BMP_temperature;BMP_pressure;BME280_temperature;BME280_humidity;BME280_pressure;Samples;Min_cycle;Max_cycle;Signal;HPM_P1;HPM_P2
2022/12/26 00:01:20;;;;;;;;;;;;;;;16.80;56.33;100495.03;7252640;19;154532;-58
2022/12/26 00:03:47;;;;;;;;;;;;;;;16.80;56.23;100492.22;7261348;19;154068;-57
2022/12/26 00:06:16;;;;;;;;;;;;;;;16.79;56.48;100496.13;7248431;19;154704;-58
2022/12/26 00:08:43;;;;;;;;;;;;;;;16.78;56.30;100489.72;7252588;19;153259;-57
2022/12/26 00:11:10;;;;;;;;;;;;;;;16.79;56.43;100491.41;7252332;19;153189;-57
2022/12/26 00:13:39;;;;;;;;;;;;;;;16.79;56.33;100490.56;7250199;19;153594;-57
2022/12/26 00:16:09;;;;;;;;;;;;;;;16.78;56.03;100488.88;7251608;19;154313;-58
2022/12/26 00:18:36;;;;;;;;;;;;;;;16.76;56.03;100486.38;7253033;19;156672;-58
2022/12/26 00:21:03;;;;;;;;;;;;;;;16.76;56.46;100474.41;7247194;19;153576;-57
2022/12/26 00:23:31;;;;;;;;;;;;;;;16.77;56.29;100476.06;7252401;19;153040;-57
2022/12/26 00:26:01;;;;;;;;;;;;;;;16.76;56.42;100480.00;7257846;19;152843;-58
2022/12/26 00:28:28;;;;;;;;;;;;;;;16.76;56.15;100482.78;7251324;19;154010;-57
2022/12/26 00:30:55;;;;;;;;;;;;;;;16.75;56.00;100475.53;7252689;19;153164;-58
2022/12/26 00:33:22;;;;;;;;;;;;;;;16.76;56.45;100477.22;7251131;19;153558;-58
2022/12/26 00:35:49;;;;;;;;;;;;;;;16.75;56.06;100475.53;7247103;19;153244;-58
2022/12/26 00:38:16;;;;;;;;;;;;;;;16.74;56.21;100459.91;7251388;19;155509;-58
2022/12/26 00:40:43;;;;;;;;;;;;;;;16.74;56.20;100476.66;7246714;19;153754;-58
2022/12/26 00:43:10;;;;;;;;;;;;;;;16.74;56.07;100476.66;7251504;19;154186;-57
2022/12/26 00:45:37;;;;;;;;;;;;;;;16.73;56.40;100475.00;7253345;19;153628;-57
2022/12/26 00:48:04;;;;;;;;;;;;;;;16.72;56.17;100467.75;7259219;19;153629;-58
2022/12/26 00:50:31;;;;;;;;;;;;;;;16.71;56.15;100458.56;7251977;19;154124;-57
2022/12/26 00:53:00;;;;;;;;;;;;;;;16.71;56.49;100463.31;7250301;19;154103;-58
2022/12/26 00:55:27;;;;;;;;;;;;;;;16.70;56.17;100458.84;7252083;19;153418;-57
2022/12/26 00:57:54;;;;;;;;;;;;;;;16.69;56.32;100455.22;7249194;19;154218;-58
2022/12/26 01:00:21;;;;;;;;;;;;;;;16.68;56.42;100447.97;7250506;19;153794;-58
2022/12/26 01:02:48;;;;;;;;;;;;;;;16.67;56.46;100451.88;7250585;19;152877;-57
2022/12/26 01:05:15;;;;;;;;;;;;;;;16.67;56.47;100465.84;7249160;19;154356;-57
2022/12/26 01:07:42;;;;;;;;;;;;;;;16.65;56.53;100462.53;7249700;19;154341;-57
2022/12/26 01:10:28;;;;;;;;;;;;;;;16.65;56.52;100462.53;7259066;19;153678;-57
2022/12/26 01:12:55;;;;;;;;;;;;;;;16.65;56.70;100467.28;7248851;19;154608;-58
2022/12/26 01:15:22;;;;;;;;;;;;;;;16.64;56.70;100460.84;7251489;19;152677;-57
2022/12/26 01:17:49;;;;;;;;;;;;;;;16.63;56.73;100450.81;7250306;19;153299;-58
2022/12/26 01:20:16;;;;;;;;;;;;;;;16.64;56.38;100454.44;7247247;19;153939;-58
2022/12/26 01:22:43;;;;;;;;;;;;;;;16.62;56.54;100454.75;7247850;19;154311;-58
2022/12/26 01:25:10;;;;;;;;;;;;;;;16.63;56.47;100449.97;7249162;19;153978;-57
2022/12/26 01:27:37;;;;;;;;;;;;;;;16.62;56.24;100451.13;7250693;19;154249;-57
2022/12/26 01:30:04;;;;;;;;;;;;;;;16.62;56.31;100449.19;7251111;19;153931;-58
2022/12/26 01:32:31;;;;;;;;;;;;;;;16.62;56.43;100456.72;7254813;19;155235;-58
2022/12/26 01:34:58;;;;;;;;;;;;;;;16.61;56.59;100455.88;7250499;19;153320;-58
2022/12/26 01:37:25;;;;;;;;;;;;;;;16.61;56.36;100458.66;7247907;19;155491;-57
2022/12/26 01:39:52;;;;;;;;;;;;;;;16.60;56.41;100457.00;7245726;19;153737;-58
2022/12/26 01:42:21;;;;;;;;;;;;;;;16.59;56.19;100448.91;7250100;19;154571;-57
2022/12/26 01:44:50;;;;;;;;;;;;;;;16.59;56.29;100457.28;7252458;19;154683;-57
2022/12/26 01:47:19;;;;;;;;;;;;;;;16.57;56.41;100456.72;7250029;19;154832;-57
2022/12/26 01:49:49;;;;;;;;;;;;;;;16.57;56.64;100453.94;7249991;19;153113;-58
2022/12/26 01:52:19;;;;;;;;;;;;;;;16.55;56.48;100443.06;7247897;19;152333;-58
2022/12/26 01:54:48;;;;;;;;;;;;;;;16.55;56.69;100431.06;7263001;19;154025;-58
2022/12/26 01:57:18;;;;;;;;;;;;;;;16.55;56.18;100422.72;7255856;19;155722;-57
2022/12/26 01:59:45;;;;;;;;;;;;;;;16.54;56.56;100435.81;7255048;19;154278;-57
2022/12/26 02:02:13;;;;;;;;;;;;;;;16.54;56.16;100433.03;7254450;19;152656;-58
2022/12/26 02:07:13;;;;;;;;;;;;;;;16.54;56.25;100441.41;7251101;19;155924;-58
2022/12/26 02:09:40;;;;;;;;;;;;;;;16.53;56.55;100439.75;7251712;19;153844;-57
2022/12/26 02:12:13;;;;;;;;;;;;;;;16.52;56.16;100432.50;7257037;19;152776;-58
2022/12/26 02:15:01;;;;;;;;;;;;;;;16.51;56.49;100442.00;7263058;19;154546;-58
2022/12/26 02:17:29;;;;;;;;;;;;;;;16.52;56.26;100457.59;7254069;19;153152;-58
2022/12/26 02:19:59;;;;;;;;;;;;;;;16.52;56.25;100454.81;7254419;19;153256;-58
2022/12/26 02:22:29;;;;;;;;;;;;;;;16.51;56.36;100455.94;7255660;19;153251;-58
2022/12/26 02:24:57;;;;;;;;;;;;;;;16.51;56.55;100457.88;7255843;19;153777;-58
2022/12/26 02:27:33;;;;;;;;;;;;;;;16.51;56.04;100453.16;7255887;19;155191;-58
2022/12/26 02:30:01;;;;;;;;;;;;;;;16.50;56.44;100465.41;7253543;19;153362;-58
2022/12/26 02:32:31;;;;;;;;;;;;;;;16.49;56.29;100463.75;7255655;19;154502;-58
2022/12/26 02:34:58;;;;;;;;;;;;;;;16.48;56.31;100459.31;7253822;19;152711;-58
2022/12/26 02:37:28;;;;;;;;;;;;;;;16.47;56.20;100474.38;7259576;19;154272;-58
2022/12/26 02:39:58;;;;;;;;;;;;;;;16.48;56.49;100469.63;7253528;19;153518;-58
2022/12/26 02:42:26;;;;;;;;;;;;;;;16.47;56.08;100468.81;7253728;19;154241;-57
2022/12/26 02:47:25;;;;;;;;;;;;;;;16.47;56.24;100482.75;7252812;19;152982;-57
2022/12/26 03:18:02;;;;;;;;;;;;;;;16.42;56.35;100544.97;7254678;19;152873;-57
2022/12/26 03:20:32;;;;;;;;;;;;;;;16.42;56.42;100544.97;7253949;19;153814;-57
2022/12/26 03:23:02;;;;;;;;;;;;;;;16.41;56.27;100543.28;7257963;19;154022;-57
2022/12/26 03:27:59;;;;;;;;;;;;;;;16.41;56.60;100553.59;7253358;19;153891;-57
2022/12/26 03:32:57;;;;;;;;;;;;;;;16.41;56.46;100562.81;7255159;19;153341;-57
2022/12/26 03:35:24;;;;;;;;;;;;;;;16.41;56.53;100579.53;7251979;19;153500;-57
2022/12/26 03:37:55;;;;;;;;;;;;;;;16.42;56.38;100572.00;7252321;19;153745;-58
2022/12/26 04:20:43;;;;;;;;;;;;;;;16.33;56.34;100640.66;7251940;19;153738;-58
2022/12/26 04:44:28;;;;;;;;;;;;;;;16.29;55.98;100698.09;7251651;19;152312;-57
2022/12/26 04:46:55;;;;;;;;;;;;;;;16.28;56.07;100702.84;7249712;19;153941;-57
2022/12/26 04:51:59;;;;;;;;;;;;;;;16.28;55.80;100727.09;7247461;19;153110;-57
2022/12/26 04:54:26;;;;;;;;;;;;;;;16.28;55.74;100730.72;7255342;19;155925;-57
2022/12/26 04:56:52;;;;;;;;;;;;;;;16.29;56.11;100742.69;7248162;19;153716;-57
2022/12/26 04:59:20;;;;;;;;;;;;;;;16.28;55.78;100744.66;7248326;19;154389;-57
2022/12/26 05:09:38;;;;;;;;;;;;;;;16.26;55.84;100766.38;7246901;19;154143;-57
2022/12/26 05:12:06;;;;;;;;;;;;;;;16.25;55.76;100778.69;7251486;19;153440;-57
2022/12/26 05:14:34;;;;;;;;;;;;;;;16.26;55.77;100791.47;7248803;19;153639;-57
2022/12/26 05:30:11;;;;;;;;;;;;;;;16.24;55.81;100852.25;7247044;19;155471;-57
2022/12/26 05:35:14;;;;;;;;;;;;;;;16.25;55.18;100859.50;7246848;19;156239;-58
2022/12/26 05:37:41;;;;;;;;;;;;;;;16.24;55.45;100874.56;7251328;19;154389;-58
2022/12/26 05:40:08;;;;;;;;;;;;;;;16.23;55.17;100872.88;7255589;19;154587;-58
2022/12/26 05:42:35;;;;;;;;;;;;;;;16.24;55.35;100882.94;7249415;19;154130;-58
2022/12/26 05:45:01;;;;;;;;;;;;;;;16.23;55.30;100886.81;7247736;19;154109;-58
2022/12/26 05:47:28;;;;;;;;;;;;;;;16.23;55.39;100897.13;7249951;19;153167;-58
2022/12/26 05:49:55;;;;;;;;;;;;;;;16.24;55.13;100899.66;7248650;19;155027;-58
2022/12/26 05:52:22;;;;;;;;;;;;;;;16.23;55.28;100899.91;7249240;19;153044;-58
2022/12/26 05:54:48;;;;;;;;;;;;;;;16.22;54.95;100907.44;7244731;19;155158;-58
2022/12/26 05:57:15;;;;;;;;;;;;;;;16.22;54.93;100917.75;7249722;19;153606;-58
2022/12/26 05:59:42;;;;;;;;;;;;;;;16.22;55.10;100926.94;7249784;19;155009;-59
2022/12/26 06:02:09;;;;;;;;;;;;;;;16.21;54.58;100928.09;7255191;19;153732;-58
2022/12/26 06:04:35;;;;;;;;;;;;;;;16.22;54.50;100940.06;7251039;19;153925;-58
2022/12/26 06:07:02;;;;;;;;;;;;;;;16.21;54.68;100941.19;7245726;19;153912;-58
2022/12/26 06:09:29;;;;;;;;;;;;;;;16.20;54.36;100943.13;7245822;19;154103;-58
2022/12/26 06:11:56;;;;;;;;;;;;;;;16.20;54.52;100948.72;7247235;19;155001;-58
2022/12/26 06:14:22;;;;;;;;;;;;;;;16.20;54.32;100948.72;7249066;19;153307;-58
2022/12/26 06:16:49;;;;;;;;;;;;;;;16.19;54.58;100962.91;7248676;19;153782;-58
2022/12/26 06:19:16;;;;;;;;;;;;;;;16.19;54.43;100960.13;7250549;19;154289;-58
2022/12/26 06:21:43;;;;;;;;;;;;;;;16.20;54.53;100967.38;7242409;19;153852;-58
2022/12/26 06:24:10;;;;;;;;;;;;;;;16.19;54.10;100974.91;7256636;19;152105;-58
2022/12/26 06:26:36;;;;;;;;;;;;;;;16.19;54.03;100988.00;7244652;19;153333;-58
2022/12/26 06:29:03;;;;;;;;;;;;;;;16.19;54.35;100996.38;7247212;19;153957;-58
2022/12/26 06:31:30;;;;;;;;;;;;;;;16.18;54.05;101001.09;7247086;19;154430;-58
2022/12/26 06:33:57;;;;;;;;;;;;;;;16.16;54.01;101008.94;7247483;19;155039;-58
2022/12/26 06:36:24;;;;;;;;;;;;;;;16.17;53.82;101012.56;7244414;19;154291;-58
2022/12/26 06:38:52;;;;;;;;;;;;;;;16.16;53.77;101025.66;7249131;19;154772;-58
2022/12/26 06:41:20;;;;;;;;;;;;;;;16.16;54.19;101035.97;7252761;19;153938;-58
2022/12/26 06:43:47;;;;;;;;;;;;;;;16.15;54.04;101032.34;7258546;19;153903;-58
2022/12/26 06:46:16;;;;;;;;;;;;;;;16.15;53.92;101042.63;7255524;19;153586;-58
2022/12/26 06:48:42;;;;;;;;;;;;;;;16.14;54.02;101055.72;7253346;19;152736;-58
2022/12/26 06:51:12;;;;;;;;;;;;;;;16.14;53.82;101055.72;7249230;19;153214;-58
2022/12/26 06:53:38;;;;;;;;;;;;;;;16.14;53.75;101058.53;7255383;19;154140;-58
2022/12/26 06:56:06;;;;;;;;;;;;;;;16.14;53.55;101066.88;7255254;19;153704;-58
2022/12/26 06:58:33;;;;;;;;;;;;;;;16.12;53.74;101060.75;7255518;19;153358;-58
2022/12/26 07:01:03;;;;;;;;;;;;;;;16.11;53.61;101075.81;7251029;19;153696;-58
2022/12/26 07:03:30;;;;;;;;;;;;;;;16.13;53.47;101086.66;7253206;19;152592;-58
2022/12/26 07:06:01;;;;;;;;;;;;;;;16.12;53.25;101079.44;7259849;19;154044;-58
2022/12/26 07:08:28;;;;;;;;;;;;;;;16.11;53.27;101075.81;7253399;19;152489;-58
2022/12/26 07:10:54;;;;;;;;;;;;;;;16.10;53.20;101076.91;7253694;19;153436;-58
2022/12/26 07:13:21;;;;;;;;;;;;;;;16.09;53.35;101085.53;7254777;19;154044;-58
2022/12/26 07:15:48;;;;;;;;;;;;;;;16.09;53.61;101085.53;7253838;19;153256;-58
2022/12/26 07:18:15;;;;;;;;;;;;;;;16.07;53.56;101094.19;7255245;19;153463;-58
2022/12/26 07:20:41;;;;;;;;;;;;;;;16.10;53.20;101106.72;7250574;19;154409;-58
2022/12/26 07:23:08;;;;;;;;;;;;;;;16.08;53.04;101104.19;7252137;19;153975;-57
2022/12/26 07:25:36;;;;;;;;;;;;;;;16.08;53.08;101109.78;7254381;19;152148;-58
2022/12/26 07:28:03;;;;;;;;;;;;;;;16.08;53.04;101120.94;7261500;19;153715;-58
2022/12/26 07:30:30;;;;;;;;;;;;;;;16.07;53.07;101126.78;7252266;19;154345;-58
2022/12/26 07:32:57;;;;;;;;;;;;;;;16.06;53.05;101130.69;7253482;19;154050;-58
2022/12/26 07:35:23;;;;;;;;;;;;;;;16.05;52.95;101138.22;7253489;19;153872;-58
2022/12/26 07:37:51;;;;;;;;;;;;;;;16.05;53.23;101129.84;7253353;19;153168;-58
2022/12/26 07:40:17;;;;;;;;;;;;;;;16.03;53.26;101132.91;7252253;19;154454;-58
2022/12/26 07:42:44;;;;;;;;;;;;;;;16.04;53.17;101144.88;7253653;19;153933;-58
2022/12/26 07:45:11;;;;;;;;;;;;;;;16.03;52.83;101157.97;7251272;19;154648;-58
2022/12/26 07:47:38;;;;;;;;;;;;;;;16.05;52.89;101156.88;7253013;19;156154;-58
2022/12/26 07:50:05;;;;;;;;;;;;;;;16.03;53.14;101157.97;7258259;19;153324;-58
2022/12/26 07:52:31;;;;;;;;;;;;;;;16.02;52.55;101161.06;7249648;19;153437;-58
2022/12/26 07:54:58;;;;;;;;;;;;;;;16.02;52.88;101170.25;7253182;19;153588;-58
2022/12/26 07:57:25;;;;;;;;;;;;;;;16.02;52.76;101166.63;7253983;19;155479;-58
2022/12/26 08:00:12;;;;;;;;;;;;;;;16.01;52.66;101173.31;7252170;19;153267;-58
2022/12/26 08:02:39;;;;;;;;;;;;;;;16.01;52.69;101187.25;7253209;19;152380;-56
2022/12/26 08:05:07;;;;;;;;;;;;;;;16.00;52.68;101193.91;7251564;19;153246;-56
2022/12/26 08:07:33;;;;;;;;;;;;;;;15.99;52.79;101203.38;7250326;19;154782;-56
2022/12/26 08:10:00;;;;;;;;;;;;;;;16.00;52.62;101210.63;7249103;19;155052;-56
2022/12/26 08:12:27;;;;;;;;;;;;;;;15.99;52.67;101211.75;7260098;19;153431;-56
2022/12/26 08:14:54;;;;;;;;;;;;;;;15.99;52.51;101223.72;7254597;19;153562;-56
2022/12/26 08:17:20;;;;;;;;;;;;;;;15.99;52.54;101231.25;7252912;19;153325;-56
2022/12/26 08:19:47;;;;;;;;;;;;;;;15.98;52.69;101232.38;7251469;19;154467;-56
2022/12/26 08:22:14;;;;;;;;;;;;;;;15.98;52.70;101232.38;7250892;19;152708;-56
2022/12/26 08:24:41;;;;;;;;;;;;;;;15.98;52.61;101237.94;7250459;19;154107;-56
2022/12/26 08:27:08;;;;;;;;;;;;;;;15.95;52.65;101236.53;7252353;19;153328;-56
2022/12/26 08:29:34;;;;;;;;;;;;;;;15.96;52.35;101249.34;7254394;19;153285;-56
2022/12/26 08:32:01;;;;;;;;;;;;;;;15.95;52.24;101247.69;7252205;19;153148;-56
2022/12/26 08:34:32;;;;;;;;;;;;;;;15.95;52.22;101249.63;7259279;19;154357;-56
2022/12/26 08:36:59;;;;;;;;;;;;;;;15.94;52.49;101250.75;7246468;19;154106;-56
2022/12/26 08:39:26;;;;;;;;;;;;;;;15.95;52.38;101266.34;7249284;19;152806;-56
2022/12/26 08:41:53;;;;;;;;;;;;;;;15.95;52.30;101263.56;7249832;19;153469;-56
2022/12/26 08:44:20;;;;;;;;;;;;;;;15.93;52.59;101272.19;7250518;19;154198;-56
2022/12/26 08:46:54;;;;;;;;;;;;;;;15.94;52.10;101273.84;7248041;19;155124;-56
2022/12/26 08:49:21;;;;;;;;;;;;;;;15.93;52.45;101277.78;7253278;19;153304;-56
2022/12/26 08:51:48;;;;;;;;;;;;;;;15.92;52.20;101272.47;7249692;19;154073;-56
2022/12/26 08:54:15;;;;;;;;;;;;;;;15.91;52.40;101281.91;7259445;19;154235;-56
2022/12/26 08:56:41;;;;;;;;;;;;;;;15.92;52.38;101294.75;7251555;19;153704;-56
2022/12/26 08:59:08;;;;;;;;;;;;;;;15.91;52.20;101298.63;7251723;19;155219;-56
2022/12/26 09:01:35;;;;;;;;;;;;;;;15.90;51.98;101294.16;7253062;19;153347;-56
2022/12/26 09:04:03;;;;;;;;;;;;;;;15.90;52.13;101305.31;7248953;19;154136;-56
2022/12/26 09:06:31;;;;;;;;;;;;;;;15.90;51.95;101313.66;7245147;19;154608;-56
2022/12/26 09:08:58;;;;;;;;;;;;;;;15.88;51.82;101319.53;7251130;19;153856;-56
2022/12/26 09:11:25;;;;;;;;;;;;;;;15.88;52.12;101333.47;7253057;19;153938;-56
2022/12/26 09:13:53;;;;;;;;;;;;;;;15.88;51.82;101340.97;7249027;19;153431;-56
2022/12/26 09:16:21;;;;;;;;;;;;;;;15.87;51.92;101350.44;7257773;19;154158;-56
2022/12/26 09:18:52;;;;;;;;;;;;;;;15.87;51.71;101350.44;7248973;19;154571;-56
2022/12/26 09:21:19;;;;;;;;;;;;;;;15.86;51.88;101351.53;7245251;19;153779;-56
2022/12/26 09:23:45;;;;;;;;;;;;;;;15.86;51.63;101351.53;7249761;19;154190;-57
2022/12/26 09:26:13;;;;;;;;;;;;;;;15.86;51.89;101359.91;7246643;19;154948;-56
2022/12/26 09:28:40;;;;;;;;;;;;;;;15.85;51.66;101366.59;7250007;19;152094;-56
2022/12/26 09:31:10;;;;;;;;;;;;;;;15.84;51.63;101367.69;7249026;19;155742;-56
2022/12/26 09:33:37;;;;;;;;;;;;;;;15.84;52.02;101374.13;7249604;19;156058;-56
2022/12/26 09:36:05;;;;;;;;;;;;;;;15.85;51.82;101386.09;7247818;19;151902;-56
2022/12/26 09:38:40;;;;;;;;;;;;;;;15.85;51.71;101388.88;7253545;19;155478;-56
2022/12/26 09:41:16;;;;;;;;;;;;;;;15.84;51.83;101392.78;7250169;19;153214;-56
2022/12/26 09:43:43;;;;;;;;;;;;;;;15.83;51.83;101394.72;7249401;19;154127;-57
2022/12/26 09:46:27;;;;;;;;;;;;;;;15.82;51.67;101398.59;7249109;19;155071;-56
2022/12/26 09:48:57;;;;;;;;;;;;;;;15.81;51.55;101394.13;7246889;19;153434;-56
2022/12/26 09:51:25;;;;;;;;;;;;;;;15.83;51.71;101405.84;7242465;19;154280;-56
2022/12/26 09:53:53;;;;;;;;;;;;;;;15.82;51.72;101406.13;7250810;19;154406;-56
2022/12/26 09:56:20;;;;;;;;;;;;;;;15.81;51.52;101413.63;7250215;19;154143;-56
2022/12/26 09:59:13;;;;;;;;;;;;;;;15.80;51.36;101423.13;7250957;19;155111;-56
2022/12/26 10:01:39;;;;;;;;;;;;;;;15.80;51.44;101409.19;7258385;19;155125;-56
2022/12/26 10:04:13;;;;;;;;;;;;;;;15.80;51.53;101417.53;7249307;19;153452;-56
2022/12/26 10:06:42;;;;;;;;;;;;;;;15.82;51.51;101431.19;7243795;19;153269;-56
2022/12/26 10:09:16;;;;;;;;;;;;;;;15.81;51.72;101432.28;7246734;19;154836;-56
2022/12/26 10:11:53;;;;;;;;;;;;;;;15.82;51.51;101442.34;7249449;19;154096;-56
2022/12/26 10:14:20;;;;;;;;;;;;;;;15.80;51.70;101442.63;7250751;19;152804;-56
2022/12/26 10:16:51;;;;;;;;;;;;;;;15.80;51.57;101450.13;7254805;19;153107;-58
2022/12/26 10:19:18;;;;;;;;;;;;;;;15.80;51.42;101461.28;7255714;19;153093;-58
2022/12/26 10:21:56;;;;;;;;;;;;;;;15.81;51.68;101460.16;7253245;19;153866;-58
2022/12/26 10:24:25;;;;;;;;;;;;;;;15.79;51.63;101460.44;7263233;19;154662;-58
2022/12/26 10:26:55;;;;;;;;;;;;;;;15.79;51.16;101466.00;7255188;19;154936;-58
2022/12/26 10:29:26;;;;;;;;;;;;;;;15.78;51.51;101467.09;7257495;19;154344;-58
2022/12/26 10:31:58;;;;;;;;;;;;;;;15.78;51.30;101469.88;7255271;19;154002;-59
2022/12/26 10:34:27;;;;;;;;;;;;;;;15.78;50.94;101478.25;7255552;19;155275;-58
2022/12/26 10:36:59;;;;;;;;;;;;;;;15.78;51.07;101481.03;7249317;19;152257;-58
2022/12/26 10:39:36;;;;;;;;;;;;;;;15.79;50.98;101484.66;7253737;19;154232;-58
2022/12/26 10:42:10;;;;;;;;;;;;;;;15.79;51.01;101495.81;7254334;19;154162;-58
2022/12/26 10:44:38;;;;;;;;;;;;;;;15.77;51.18;101495.22;7261878;19;153386;-58
2022/12/26 10:47:05;;;;;;;;;;;;;;;15.78;51.06;101500.53;7255217;19;153509;-58
2022/12/26 10:49:32;;;;;;;;;;;;;;;15.79;51.04;101495.81;7255348;19;154854;-58
2022/12/26 10:52:00;;;;;;;;;;;;;;;15.79;51.21;101498.59;7252231;19;152355;-58
2022/12/26 10:54:28;;;;;;;;;;;;;;;15.78;50.80;101510.81;7253707;19;154494;-58
2022/12/26 10:56:56;;;;;;;;;;;;;;;15.78;50.98;101500.53;7251795;19;154082;-58
2022/12/26 10:59:33;;;;;;;;;;;;;;;15.79;50.69;101504.16;7255081;19;152470;-58
2022/12/26 11:02:11;;;;;;;;;;;;;;;15.78;50.63;101503.31;7255574;19;154433;-56
2022/12/26 11:04:55;;;;;;;;;;;;;;;15.78;51.01;101502.47;7254293;19;153540;-58
2022/12/26 11:07:47;;;;;;;;;;;;;;;15.77;50.40;101500.78;7258786;19;155250;-58
2022/12/26 11:10:19;;;;;;;;;;;;;;;15.77;50.56;101517.50;7255533;19;154372;-58
2022/12/26 11:12:49;;;;;;;;;;;;;;;15.76;50.75;101511.09;7255430;19;153840;-58
2022/12/26 11:15:17;;;;;;;;;;;;;;;15.76;50.62;101513.88;7250784;19;153678;-58
2022/12/26 11:17:46;;;;;;;;;;;;;;;15.78;50.40;101517.25;7254649;19;154386;-58
2022/12/26 11:20:14;;;;;;;;;;;;;;;15.77;50.63;101520.28;7250854;19;154657;-58
2022/12/26 11:22:41;;;;;;;;;;;;;;;15.78;50.81;101516.41;7252091;19;154139;-58
2022/12/26 11:25:08;;;;;;;;;;;;;;;15.78;50.75;101520.03;7247889;19;154203;-58
2022/12/26 11:27:36;;;;;;;;;;;;;;;15.79;50.47;101523.66;7255213;19;153324;-58
2022/12/26 11:30:13;;;;;;;;;;;;;;;15.78;50.48;101524.75;7257851;19;154277;-58
2022/12/26 11:32:40;;;;;;;;;;;;;;;15.78;50.52;101527.53;7253735;19;154372;-58
2022/12/26 11:35:17;;;;;;;;;;;;;;;15.78;50.48;101533.13;7249915;19;155207;-59
2022/12/26 11:37:45;;;;;;;;;;;;;;;15.78;50.29;101530.34;7252931;19;152200;-58
2022/12/26 11:40:16;;;;;;;;;;;;;;;15.79;50.67;101532.88;7254178;19;153864;-58
2022/12/26 11:42:47;;;;;;;;;;;;;;;15.79;50.30;101529.22;7252695;19;154595;-58
2022/12/26 11:45:19;;;;;;;;;;;;;;;15.81;50.49;101529.78;7249540;19;152774;-57
2022/12/26 11:47:46;;;;;;;;;;;;;;;15.80;50.73;101537.34;7255139;19;152894;-57
2022/12/26 11:50:20;;;;;;;;;;;;;;;15.81;50.79;101530.63;7249867;19;154960;-58
2022/12/26 11:52:56;;;;;;;;;;;;;;;15.82;50.58;101537.06;7258410;19;154900;-57
2022/12/26 11:55:23;;;;;;;;;;;;;;;15.80;50.61;101531.75;7252381;19;154257;-58
2022/12/26 11:58:00;;;;;;;;;;;;;;;15.81;50.68;101539.00;7254755;19;153585;-58
2022/12/26 12:00:27;;;;;;;;;;;;;;;15.81;50.71;101540.94;7254141;19;152229;-58
2022/12/26 12:02:54;;;;;;;;;;;;;;;15.80;50.64;101533.72;7252964;19;154286;-58
2022/12/26 12:05:21;;;;;;;;;;;;;;;15.80;50.51;101534.56;7250766;19;152630;-58
2022/12/26 12:07:58;;;;;;;;;;;;;;;15.81;50.59;101535.38;7252364;19;152974;-58
2022/12/26 12:10:34;;;;;;;;;;;;;;;15.82;50.40;101539.84;7251942;19;154303;-58
2022/12/26 12:13:06;;;;;;;;;;;;;;;15.84;50.40;101541.28;7252973;19;153774;-58
2022/12/26 12:15:40;;;;;;;;;;;;;;;15.87;50.46;101531.53;7257940;19;154058;-58
2022/12/26 12:18:10;;;;;;;;;;;;;;;15.89;50.16;101526.56;7255017;19;154427;-58
2022/12/26 12:20:45;;;;;;;;;;;;;;;15.91;50.40;101535.47;7251069;19;154558;-57
2022/12/26 12:23:29;;;;;;;;;;;;;;;15.95;50.49;101519.91;7250058;19;154338;-58
2022/12/26 12:26:02;;;;;;;;;;;;;;;15.99;50.06;101524.69;7251385;19;153054;-58
2022/12/26 12:28:36;;;;;;;;;;;;;;;16.06;50.29;101532.00;7249382;19;153542;-58
2022/12/26 12:31:08;;;;;;;;;;;;;;;16.12;50.28;101529.03;7251915;19;154062;-58
2022/12/26 12:33:45;;;;;;;;;;;;;;;16.20;49.98;101533.25;7253425;19;154001;-58
2022/12/26 12:36:16;;;;;;;;;;;;;;;16.26;50.19;101521.88;7249847;19;153233;-61
2022/12/26 12:39:01;;;;;;;;;;;;;;;16.31;49.66;101521.91;7258086;19;155317;-58
2022/12/26 12:41:40;;;;;;;;;;;;;;;16.37;49.83;101520.88;7254346;19;153998;-58
2022/12/26 12:44:07;;;;;;;;;;;;;;;16.43;49.64;101525.38;7253341;19;155414;-58
2022/12/26 12:46:42;;;;;;;;;;;;;;;16.48;49.31;101520.94;7251329;19;153855;-58
2022/12/26 12:49:27;;;;;;;;;;;;;;;16.52;49.41;101520.16;7252952;19;153427;-58
2022/12/26 12:52:12;;;;;;;;;;;;;;;16.57;49.05;101522.13;7247080;19;155047;-58
2022/12/26 12:54:51;;;;;;;;;;;;;;;16.61;48.94;101521.38;7250673;19;152426;-58
2022/12/26 12:57:25;;;;;;;;;;;;;;;16.65;48.89;101530.88;7252607;19;152851;-58
2022/12/26 12:59:52;;;;;;;;;;;;;;;16.69;48.66;101528.38;7257454;19;153394;-58
2022/12/26 13:02:24;;;;;;;;;;;;;;;16.73;48.84;101527.56;7250966;19;153790;-58
2022/12/26 13:04:57;;;;;;;;;;;;;;;16.77;48.70;101525.94;7246432;19;156098;-57
2022/12/26 13:07:38;;;;;;;;;;;;;;;16.81;48.41;101534.59;7246413;19;153905;-58
2022/12/26 13:10:18;;;;;;;;;;;;;;;16.85;48.21;101535.75;7252748;19;153418;-58
2022/12/26 13:12:46;;;;;;;;;;;;;;;16.87;47.96;101534.38;7250012;19;154081;-58
2022/12/26 13:15:16;;;;;;;;;;;;;;;16.89;48.18;101525.75;7252780;19;152162;-58
2022/12/26 13:17:52;;;;;;;;;;;;;;;16.91;48.00;101534.66;7250013;19;154073;-58
2022/12/26 13:20:22;;;;;;;;;;;;;;;16.94;48.09;101531.34;7245591;19;154907;-58
2022/12/26 13:25:41;;;;;;;;;;;;;;;16.97;47.72;101535.53;7247754;19;155888;-57
2022/12/26 13:28:11;;;;;;;;;;;;;;;16.97;47.62;101532.75;7249092;19;153198;-57
2022/12/26 13:30:38;;;;;;;;;;;;;;;16.99;47.44;101531.34;7249730;19;154642;-57
2022/12/26 13:33:05;;;;;;;;;;;;;;;16.99;47.20;101531.34;7250390;19;155050;-57
2022/12/26 13:35:47;;;;;;;;;;;;;;;17.01;47.30;101531.94;7248131;19;152332;-57
2022/12/26 13:38:14;;;;;;;;;;;;;;;17.01;47.61;101531.94;7248823;19;154683;-57
2022/12/26 13:40:48;;;;;;;;;;;;;;;17.02;47.33;101522.47;7250049;19;155546;-57
2022/12/26 13:46:33;;;;;;;;;;;;;;;17.03;47.53;101517.72;7255730;19;153583;-57
2022/12/26 13:49:00;;;;;;;;;;;;;;;17.03;47.20;101520.53;7249553;19;153980;-57
2022/12/26 13:51:40;;;;;;;;;;;;;;;17.03;47.08;101531.69;7246323;19;154721;-57
2022/12/26 13:54:09;;;;;;;;;;;;;;;17.02;47.19;101533.63;7250174;19;153543;-57
2022/12/26 13:56:39;;;;;;;;;;;;;;;17.04;47.23;101538.91;7250773;19;152460;-57
2022/12/26 13:59:14;;;;;;;;;;;;;;;17.04;47.19;101545.34;7252272;19;153095;-57
2022/12/26 14:01:41;;;;;;;;;;;;;;;17.04;46.96;101539.75;7250759;19;153791;-57
2022/12/26 14:04:23;;;;;;;;;;;;;;;17.03;46.76;101538.13;7249709;19;154311;-57
2022/12/26 14:07:05;;;;;;;;;;;;;;;17.04;47.10;101531.38;7243937;19;154056;-57
2022/12/26 14:09:41;;;;;;;;;;;;;;;17.04;46.62;101538.91;7253526;19;154976;-57
2022/12/26 14:12:19;;;;;;;;;;;;;;;17.04;46.50;101545.34;7250326;19;153941;-57
2022/12/26 14:14:52;;;;;;;;;;;;;;;17.04;46.87;101553.72;7250285;19;154066;-57
2022/12/26 14:17:20;;;;;;;;;;;;;;;17.03;46.81;101556.81;7248758;19;153644;-57
2022/12/26 14:20:00;;;;;;;;;;;;;;;17.02;46.64;101558.75;7249788;19;154372;-57
2022/12/26 14:22:32;;;;;;;;;;;;;;;17.01;46.77;101561.81;7245138;19;154743;-57
2022/12/26 14:25:09;;;;;;;;;;;;;;;17.01;46.77;101550.63;7248860;19;154232;-57
2022/12/26 14:27:35;;;;;;;;;;;;;;;17.01;46.60;101573.81;7249084;19;153830;-58
2022/12/26 14:30:05;;;;;;;;;;;;;;;17.00;46.57;101563.75;7245799;19;155850;-58
2022/12/26 14:32:44;;;;;;;;;;;;;;;16.99;46.48;101570.44;7257161;19;153545;-59
2022/12/26 14:35:13;;;;;;;;;;;;;;;16.99;46.67;101572.41;7247547;19;153561;-58
2022/12/26 14:37:40;;;;;;;;;;;;;;;16.97;46.64;101572.69;7248547;19;154027;-58
2022/12/26 14:40:17;;;;;;;;;;;;;;;16.97;46.45;101571.84;7248308;19;152402;-58
2022/12/26 14:43:12;;;;;;;;;;;;;;;16.96;46.38;101570.16;7247060;19;153215;-58
2022/12/26 14:45:41;;;;;;;;;;;;;;;16.95;46.22;101571.25;7249324;19;153661;-58
2022/12/26 14:48:13;;;;;;;;;;;;;;;16.94;46.35;101562.06;7249612;19;153246;-58
2022/12/26 14:50:50;;;;;;;;;;;;;;;16.93;46.71;101579.06;7245594;19;154828;-58
2022/12/26 14:53:23;;;;;;;;;;;;;;;16.92;46.73;101571.78;7245704;19;154174;-58